Time;durP1;ratioP1;P1;durP2;ratioP2;P2;SDS_P1;SDS_P2;PMS_P1;PMS_P2;Temp;Humidity;BMP_temperature;BMP_pressure;BME280_temperature;BME280_humidity;BME280_pressure;Samples;Min_cycle;Max_cycle;Signal;HPM_P1;HPM_P2
2021/10/02 00:41:38;;;;;;;8.35;6.85;;;12.80;93.80;;;;;;5055087;28;20047;-49
2021/10/02 00:46:52;;;;;;;8.85;7.07;;;12.90;93.30;;;;;;5054994;28;20174;-47
2021/10/02 00:49:18;;;;;;;11.50;7.68;;;12.80;93.50;;;;;;5054760;28;20142;-48
2021/10/02 00:51:45;;;;;;;10.57;6.32;;;12.80;93.70;;;;;;5054647;28;20470;-47
2021/10/02 00:54:11;;;;;;;8.98;6.78;;;12.70;93.80;;;;;;5053451;28;20032;-49
2021/10/02 00:56:37;;;;;;;13.40;7.53;;;12.70;94.00;;;;;;5054765;28;20128;-49
2021/10/02 00:59:03;;;;;;;12.38;8.25;;;12.80;94.00;;;;;;5054254;28;20041;-47
2021/10/02 01:01:40;;;;;;;14.02;8.10;;;12.80;93.90;;;;;;5054216;28;20045;-48
2021/10/02 01:04:16;;;;;;;12.88;7.75;;;12.80;93.90;;;;;;5054032;28;20021;-48
2021/10/02 01:07:15;;;;;;;9.20;6.80;;;12.80;93.60;;;;;;5054095;28;20063;-48
2021/10/02 01:10:08;;;;;;;15.00;8.52;;;12.80;93.70;;;;;;5054775;28;20036;-46
2021/10/02 01:13:08;;;;;;;8.70;6.35;;;12.80;93.70;;;;;;5054243;28;20507;-51
2021/10/02 01:15:45;;;;;;;;;;;12.80;93.80;;;;;;5054459;28;20035;-50
2021/10/02 01:18:24;;;;;;;10.20;7.00;;;12.80;93.90;;;;;;5054133;28;20397;-49
2021/10/02 01:21:27;;;;;;;9.90;6.90;;;12.90;93.70;;;;;;5054244;28;20021;-50
2021/10/02 01:24:15;;;;;;;11.48;7.72;;;12.90;93.50;;;;;;5053689;28;20108;-48
2021/10/02 01:27:01;;;;;;;10.98;7.60;;;12.90;93.50;;;;;;5053705;28;20032;-47
2021/10/02 01:29:30;;;;;;;14.60;7.78;;;12.90;93.50;;;;;;5053624;28;20025;-47
2021/10/02 01:32:07;;;;;;;10.50;7.90;;;12.90;93.50;;;;;;5053843;28;20122;-47
2021/10/02 01:48:45;;;;;;;11.52;8.05;;;13.00;93.60;;;;;;5054107;28;20082;-49
2021/10/02 01:51:13;;;;;;;14.38;8.07;;;13.00;93.60;;;;;;5053517;28;20067;-50
2021/10/02 01:53:42;;;;;;;8.80;7.18;;;13.10;93.70;;;;;;5053449;28;20059;-49
2021/10/02 01:56:11;;;;;;;7.47;6.45;;;13.00;93.50;;;;;;5052615;28;20051;-48
2021/10/02 01:58:37;;;;;;;12.50;7.10;;;12.90;93.90;;;;;;5053794;28;20025;-48
2021/10/02 02:01:05;;;;;;;11.23;8.65;;;13.00;94.10;;;;;;5053266;28;20032;-51
2021/10/02 02:03:33;;;;;;;12.98;8.68;;;13.00;94.00;;;;;;5053271;28;20025;-53
2021/10/02 02:06:01;;;;;;;11.18;8.15;;;13.00;94.00;;;;;;5053350;28;20442;-50
2021/10/02 02:08:28;;;;;;;9.57;8.13;;;12.90;94.00;;;;;;5053266;28;20017;-48
2021/10/02 02:10:55;;;;;;;14.52;9.63;;;12.90;94.10;;;;;;5053091;28;20091;-51
2021/10/02 02:13:23;;;;;;;10.35;8.50;;;13.00;94.20;;;;;;5053332;28;20381;-48
2021/10/02 02:15:50;;;;;;;15.95;9.60;;;12.90;94.20;;;;;;5053264;28;20024;-48
2021/10/02 02:18:21;;;;;;;11.45;9.85;;;12.90;94.30;;;;;;5052940;28;20036;-50
2021/10/02 02:21:11;;;;;;;13.65;9.65;;;12.90;94.30;;;;;;5053234;28;20385;-48
2021/10/02 02:23:38;;;;;;;11.15;8.23;;;12.90;94.30;;;;;;5052947;28;20083;-47
2021/10/02 02:26:05;;;;;;;13.07;9.80;;;13.00;94.40;;;;;;5052919;28;20112;-49
2021/10/02 02:28:41;;;;;;;12.10;9.02;;;13.00;94.30;;;;;;5053189;28;20021;-48
2021/10/02 02:31:07;;;;;;;12.20;9.82;;;13.10;94.10;;;;;;5053077;28;20029;-50
2021/10/02 02:33:34;;;;;;;14.23;9.73;;;13.10;93.90;;;;;;5052739;28;20059;-48
2021/10/02 02:36:02;;;;;;;13.20;9.35;;;13.10;93.80;;;;;;5052791;28;20028;-47
2021/10/02 02:38:28;;;;;;;9.90;8.40;;;13.10;93.80;;;;;;5052975;28;20105;-48
2021/10/02 02:40:54;;;;;;;10.77;8.68;;;13.10;93.60;;;;;;5051590;28;20163;-49
2021/10/02 02:43:20;;;;;;;10.02;7.85;;;13.10;93.60;;;;;;5052618;28;20048;-47
2021/10/02 02:45:54;;;;;;;10.07;8.52;;;13.00;93.80;;;;;;5052822;28;20049;-47
2021/10/02 02:48:27;;;;;;;8.65;7.75;;;13.10;93.70;;;;;;5053253;28;20021;-48
2021/10/02 02:51:01;;;;;;;8.80;7.88;;;13.10;93.70;;;;;;5052796;28;20032;-49
2021/10/02 02:53:48;;;;;;;12.40;8.48;;;13.20;93.60;;;;;;5052661;28;20377;-47
2021/10/02 02:56:20;;;;;;;9.13;8.15;;;13.20;93.60;;;;;;5052127;28;20128;-48
2021/10/02 02:58:50;;;;;;;12.45;9.00;;;13.30;93.40;;;;;;5052661;28;20029;-49
2021/10/02 03:01:20;;;;;;;9.90;6.45;;;13.20;93.40;;;;;;5052934;28;20021;-48
2021/10/02 03:03:47;;;;;;;9.15;7.40;;;13.10;93.60;;;;;;5052310;28;20112;-50
2021/10/02 03:06:14;;;;;;;8.63;6.35;;;13.10;93.80;;;;;;5052730;28;20543;-52
2021/10/02 03:08:49;;;;;;;10.38;7.88;;;13.00;93.80;;;;;;5055971;28;20374;-48
2021/10/02 03:11:19;;;;;;;7.88;6.78;;;13.10;93.80;;;;;;5056764;28;20021;-49
2021/10/02 03:13:48;;;;;;;11.27;7.93;;;13.20;93.50;;;;;;5056529;28;20040;-48
2021/10/02 03:16:16;;;;;;;13.13;7.70;;;13.30;93.10;;;;;;5056381;28;20025;-48
2021/10/02 03:18:47;;;;;;;14.15;8.95;;;13.30;92.90;;;;;;5054990;28;20032;-48
2021/10/02 03:21:14;;;;;;;10.63;7.28;;;13.30;93.00;;;;;;5038953;28;20028;-47
2021/10/02 03:23:45;;;;;;;10.98;7.32;;;13.30;93.00;;;;;;5056199;28;20112;-52
2021/10/02 03:26:11;;;;;;;9.13;6.88;;;13.30;92.90;;;;;;5056584;28;20035;-51
2021/10/02 03:28:37;;;;;;;8.07;6.75;;;13.30;92.80;;;;;;5054884;28;20033;-51
2021/10/02 03:31:04;;;;;;;7.78;6.97;;;13.30;92.80;;;;;;5056537;28;20432;-51
2021/10/02 03:33:31;;;;;;;10.75;7.65;;;13.20;93.10;;;;;;5056450;28;20029;-51
2021/10/02 03:35:57;;;;;;;11.25;7.18;;;13.30;93.10;;;;;;5056167;28;20064;-49
2021/10/02 03:38:24;;;;;;;8.52;6.20;;;13.20;93.00;;;;;;5056080;28;20025;-47
2021/10/02 03:40:50;;;;;;;9.23;7.28;;;13.20;93.30;;;;;;5056970;28;20056;-53
2021/10/02 03:43:16;;;;;;;10.07;7.07;;;13.20;93.50;;;;;;5056213;28;20467;-48
2021/10/02 03:45:41;;;;;;;9.77;7.55;;;13.30;93.50;;;;;;5055528;28;20102;-48
2021/10/02 03:48:07;;;;;;;8.95;6.90;;;13.30;93.20;;;;;;5055312;28;20024;-55
2021/10/02 03:50:34;;;;;;;8.43;7.38;;;13.30;93.10;;;;;;5055193;28;20455;-49
2021/10/02 03:53:00;;;;;;;11.98;7.38;;;13.30;92.90;;;;;;5054063;28;20195;-54
2021/10/02 03:55:26;;;;;;;10.90;7.57;;;13.30;93.00;;;;;;5053597;28;20132;-49
2021/10/02 03:57:52;;;;;;;8.65;7.00;;;13.30;93.00;;;;;;5055156;28;20036;-49
2021/10/02 04:00:17;;;;;;;9.85;7.15;;;13.40;92.80;;;;;;5055029;28;20021;-52
2021/10/02 04:02:43;;;;;;;11.75;7.65;;;13.40;92.40;;;;;;5055894;28;20044;-47
2021/10/02 04:05:10;;;;;;;10.65;7.88;;;13.30;92.70;;;;;;5055356;28;20053;-51
2021/10/02 04:07:36;;;;;;;14.98;8.80;;;13.40;92.60;;;;;;5055047;28;20033;-51
2021/10/02 04:10:04;;;;;;;10.52;8.27;;;13.40;92.60;;;;;;5054897;28;20472;-49
2021/10/02 04:12:30;;;;;;;10.20;7.80;;;13.40;92.40;;;;;;5054812;28;20025;-48
2021/10/02 04:14:56;;;;;;;11.40;8.85;;;13.40;92.70;;;;;;5054644;28;20036;-47
2021/10/02 04:17:21;;;;;;;9.85;7.75;;;13.40;92.40;;;;;;5054682;28;20032;-48
2021/10/02 04:19:47;;;;;;;10.00;7.65;;;13.40;92.30;;;;;;5054189;28;20507;-48
2021/10/02 04:22:13;;;;;;;8.77;6.25;;;13.30;92.40;;;;;;5055054;28;20109;-48
2021/10/02 04:24:41;;;;;;;7.03;6.32;;;13.20;92.80;;;;;;5055172;28;20074;-49
2021/10/02 04:27:07;;;;;;;7.78;6.35;;;13.20;93.10;;;;;;5055352;28;20028;-49
2021/10/02 04:29:33;;;;;;;10.73;7.45;;;13.20;93.30;;;;;;5055059;28;20381;-48
2021/10/02 04:31:58;;;;;;;9.18;7.97;;;13.30;93.00;;;;;;5055320;28;20025;-50
2021/10/02 04:34:24;;;;;;;11.55;6.50;;;13.30;92.90;;;;;;5054979;28;20031;-49
2021/10/02 04:36:50;;;;;;;8.50;6.25;;;13.30;92.90;;;;;;5055366;28;20029;-48
2021/10/02 04:39:15;;;;;;;10.15;6.05;;;13.20;92.90;;;;;;5054844;28;20103;-50
2021/10/02 04:41:41;;;;;;;8.23;5.65;;;13.30;92.90;;;;;;5053559;28;20384;-50
2021/10/02 04:44:07;;;;;;;11.25;5.72;;;13.30;92.90;;;;;;5055112;28;20025;-50
2021/10/02 04:46:32;;;;;;;9.27;5.40;;;13.20;93.10;;;;;;5054981;28;20025;-48
2021/10/02 04:48:58;;;;;;;13.55;7.32;;;13.20;93.40;;;;;;5055023;28;20053;-53
2021/10/02 04:51:24;;;;;;;5.95;4.85;;;13.20;93.10;;;;;;5054615;28;20041;-49
2021/10/02 04:53:49;;;;;;;6.72;5.35;;;13.10;92.90;;;;;;5054667;28;20021;-49
2021/10/02 04:56:17;;;;;;;7.15;5.07;;;13.20;93.40;;;;;;5054327;28;20049;-48
2021/10/02 04:58:43;;;;;;;7.80;6.03;;;13.30;93.00;;;;;;5054637;28;20096;-49
2021/10/02 05:01:10;;;;;;;11.18;6.18;;;13.30;92.80;;;;;;5054888;28;20043;-47
2021/10/02 05:03:37;;;;;;;7.45;5.60;;;13.30;92.70;;;;;;5054526;28;20044;-48
2021/10/02 05:06:04;;;;;;;10.07;5.35;;;13.30;92.70;;;;;;5055065;28;20013;-54
2021/10/02 05:08:31;;;;;;;9.77;5.47;;;13.30;92.40;;;;;;5055073;28;20017;-48
2021/10/02 05:10:57;;;;;;;13.80;6.20;;;13.30;92.70;;;;;;5054216;28;20021;-48
2021/10/02 05:13:22;;;;;;;8.48;5.63;;;13.30;92.90;;;;;;5054209;28;20481;-48
2021/10/02 05:15:48;;;;;;;7.93;6.00;;;13.30;92.50;;;;;;5054123;28;20028;-48
2021/10/02 05:18:14;;;;;;;9.18;5.82;;;13.40;92.20;;;;;;5054245;28;20029;-50
2021/10/02 05:20:39;;;;;;;7.97;4.95;;;13.30;92.40;;;;;;5053235;28;20492;-48
2021/10/02 05:23:05;;;;;;;14.65;5.43;;;13.30;92.80;;;;;;5053964;28;20025;-48
2021/10/02 05:25:31;;;;;;;13.85;6.68;;;13.20;93.00;;;;;;5053968;28;20353;-49
2021/10/02 05:27:57;;;;;;;10.07;5.57;;;13.30;92.80;;;;;;5054347;28;20029;-49
2021/10/02 05:30:22;;;;;;;8.55;5.85;;;13.30;92.70;;;;;;5052941;28;20517;-48
2021/10/02 05:32:48;;;;;;;7.88;5.78;;;13.30;92.50;;;;;;5053840;28;20431;-49
2021/10/02 05:35:14;;;;;;;9.20;5.25;;;13.30;92.10;;;;;;5052551;28;20033;-51
2021/10/02 05:37:40;;;;;;;10.38;5.90;;;13.40;92.30;;;;;;5053852;28;20021;-48
2021/10/02 05:40:07;;;;;;;6.65;5.93;;;13.40;91.90;;;;;;5053635;28;20104;-48
2021/10/02 05:42:32;;;;;;;9.02;6.68;;;13.30;92.10;;;;;;5053558;28;20106;-49
2021/10/02 05:44:58;;;;;;;11.27;7.47;;;13.30;92.20;;;;;;5053908;28;20029;-48
2021/10/02 05:47:24;;;;;;;13.50;6.70;;;13.30;92.30;;;;;;5052168;28;20540;-51
2021/10/02 05:49:50;;;;;;;10.38;6.50;;;13.30;92.30;;;;;;5053546;28;20028;-49
2021/10/02 05:52:17;;;;;;;7.75;6.40;;;13.30;92.60;;;;;;5053788;28;20111;-52
2021/10/02 05:54:43;;;;;;;10.98;6.22;;;13.30;92.90;;;;;;5053466;28;20243;-49
2021/10/02 05:57:08;;;;;;;15.30;5.72;;;13.20;92.70;;;;;;5053684;28;20064;-50
2021/10/02 05:59:34;;;;;;;8.85;6.88;;;13.30;92.90;;;;;;5052008;28;20033;-47
2021/10/02 06:01:59;;;;;;;12.00;6.85;;;13.30;92.60;;;;;;5053430;28;20025;-49
2021/10/02 06:04:25;;;;;;;9.55;5.70;;;13.20;92.40;;;;;;5053134;28;20021;-47
2021/10/02 06:06:51;;;;;;;8.57;6.47;;;13.10;92.80;;;;;;5053590;28;20473;-50
2021/10/02 06:09:17;;;;;;;10.90;7.28;;;13.10;93.10;;;;;;5053278;28;20484;-49
2021/10/02 06:11:43;;;;;;;9.75;6.88;;;13.10;92.80;;;;;;5053564;28;20051;-52
2021/10/02 06:14:08;;;;;;;9.85;6.70;;;13.10;92.90;;;;;;5053489;28;20017;-48
2021/10/02 06:16:38;;;;;;;10.70;7.20;;;13.20;93.10;;;;;;5053035;28;20428;-47
2021/10/02 06:19:04;;;;;;;12.25;8.10;;;13.20;92.90;;;;;;5052892;28;20040;-51
2021/10/02 06:21:30;;;;;;;10.07;6.95;;;13.10;93.10;;;;;;5052927;28;20112;-47
2021/10/02 06:23:58;;;;;;;7.55;6.38;;;13.10;93.30;;;;;;5051718;28;20108;-50
2021/10/02 06:26:29;;;;;;;7.43;5.63;;;13.00;93.40;;;;;;5053141;28;20032;-49
2021/10/02 06:28:55;;;;;;;14.45;7.13;;;12.90;93.50;;;;;;5052814;28;20425;-52
2021/10/02 06:31:21;;;;;;;10.93;7.55;;;13.00;93.80;;;;;;5053084;28;20496;-49
2021/10/02 06:33:47;;;;;;;11.70;7.65;;;13.10;93.60;;;;;;5052662;28;20021;-49
2021/10/02 06:36:13;;;;;;;8.13;7.32;;;13.10;93.70;;;;;;5052643;28;20033;-51
2021/10/02 06:38:40;;;;;;;12.23;8.18;;;13.20;93.20;;;;;;5052374;28;20362;-47
2021/10/02 06:41:06;;;;;;;12.45;7.55;;;13.20;93.40;;;;;;5052202;28;20036;-51
2021/10/02 06:43:31;;;;;;;7.65;6.80;;;13.30;92.90;;;;;;5052457;28;20021;-53
2021/10/02 06:45:58;;;;;;;7.15;6.25;;;13.30;92.80;;;;;;5051200;28;20021;-52
2021/10/02 06:48:24;;;;;;;9.85;5.57;;;13.40;92.70;;;;;;5052156;28;20075;-48
2021/10/02 06:50:50;;;;;;;8.80;6.32;;;13.30;92.20;;;;;;5052246;28;20017;-53
2021/10/02 06:53:16;;;;;;;6.88;6.18;;;13.50;92.30;;;;;;5052751;28;20036;-52
2021/10/02 06:55:41;;;;;;;11.20;7.07;;;13.50;91.80;;;;;;5052394;28;20041;-53
2021/10/02 06:58:07;;;;;;;6.20;5.60;;;13.60;91.70;;;;;;5052362;28;20036;-52
2021/10/02 07:00:35;;;;;;;8.55;5.25;;;13.50;91.80;;;;;;5052458;28;20033;-49
2021/10/02 07:03:00;;;;;;;8.35;6.00;;;13.50;92.00;;;;;;5052599;28;20025;-50
2021/10/02 07:05:26;;;;;;;7.32;4.55;;;13.60;92.20;;;;;;5052346;28;20096;-51
2021/10/02 07:07:52;;;;;;;5.80;4.38;;;13.70;91.70;;;;;;5052309;28;20036;-53
2021/10/02 07:10:20;;;;;;;6.20;4.50;;;13.60;91.60;;;;;;5051973;28;20431;-50
2021/10/02 07:12:49;;;;;;;8.73;5.15;;;13.70;92.10;;;;;;5050598;28;20022;-49
2021/10/02 07:15:15;;;;;;;7.18;4.53;;;13.80;91.80;;;;;;5052096;28;20028;-50
2021/10/02 07:17:42;;;;;;;9.57;4.97;;;14.00;91.20;;;;;;5051954;28;20116;-50
2021/10/02 07:20:08;;;;;;;7.05;4.53;;;13.90;91.10;;;;;;5051406;28;20087;-51
2021/10/02 07:22:40;;;;;;;7.85;4.10;;;14.10;91.20;;;;;;5052022;28;20025;-54
2021/10/02 07:25:16;;;;;;;9.25;4.18;;;14.20;90.60;;;;;;5052264;28;20021;-49
2021/10/02 07:27:43;;;;;;;5.43;4.15;;;14.20;89.90;;;;;;5052252;28;20031;-48
2021/10/02 07:30:11;;;;;;;8.73;3.80;;;14.20;90.50;;;;;;5051926;28;20108;-53
2021/10/02 07:32:38;;;;;;;5.72;3.63;;;14.10;90.50;;;;;;5052151;28;20066;-49
2021/10/02 07:35:05;;;;;;;4.10;3.70;;;14.20;89.40;;;;;;5051955;28;20392;-53
2021/10/02 07:37:30;;;;;;;5.43;3.70;;;14.20;89.90;;;;;;5051976;28;20032;-53
2021/10/02 07:39:56;;;;;;;12.63;4.53;;;14.30;89.50;;;;;;5051911;28;20025;-49
2021/10/02 07:42:24;;;;;;;6.90;3.33;;;14.20;89.50;;;;;;5051590;28;20027;-49
2021/10/02 07:44:55;;;;;;;6.72;3.83;;;14.30;89.40;;;;;;5051930;28;20025;-49
2021/10/02 07:47:22;;;;;;;7.05;5.28;;;14.30;89.40;;;;;;5050556;28;20021;-52
2021/10/02 07:49:50;;;;;;;5.07;3.90;;;14.30;89.80;;;;;;5051839;28;20469;-48
2021/10/02 07:52:16;;;;;;;4.97;4.20;;;14.30;89.10;;;;;;5051149;28;20085;-51
2021/10/02 07:54:44;;;;;;;4.53;2.88;;;14.50;89.10;;;;;;5054911;28;20424;-49
2021/10/02 07:57:09;;;;;;;5.07;2.85;;;14.50;88.50;;;;;;5055874;28;20033;-46
2021/10/02 07:59:37;;;;;;;3.35;2.80;;;14.30;88.80;;;;;;5055152;28;20064;-52
2021/10/02 08:02:06;;;;;;;3.25;2.20;;;14.40;88.90;;;;;;5055350;28;20108;-49
2021/10/02 08:04:31;;;;;;;2.75;2.47;;;14.50;88.50;;;;;;5055381;28;20024;-49
2021/10/02 08:06:57;;;;;;;2.95;2.40;;;14.50;88.40;;;;;;5055490;28;20029;-48
2021/10/02 08:09:25;;;;;;;3.10;2.67;;;14.50;88.10;;;;;;5056012;28;20108;-47
2021/10/02 08:11:53;;;;;;;3.10;2.67;;;14.70;88.20;;;;;;5055241;28;20021;-47
2021/10/02 08:14:18;;;;;;;6.50;3.00;;;14.60;88.10;;;;;;5054943;28;20469;-47
2021/10/02 08:16:46;;;;;;;6.43;2.45;;;14.70;88.00;;;;;;5055457;28;20021;-50
2021/10/02 08:19:15;;;;;;;1.65;1.55;;;14.80;87.00;;;;;;5055053;28;20100;-50
2021/10/02 08:21:42;;;;;;;5.40;2.10;;;14.70;87.80;;;;;;5054573;28;20024;-49
2021/10/02 08:24:09;;;;;;;3.83;2.40;;;14.80;87.00;;;;;;5054812;28;20394;-48
2021/10/02 08:26:35;;;;;;;4.70;2.03;;;14.60;87.40;;;;;;5054646;28;20024;-49
2021/10/02 08:29:02;;;;;;;2.05;1.95;;;14.60;87.50;;;;;;5054625;28;20047;-51
2021/10/02 08:31:29;;;;;;;3.35;2.10;;;14.70;87.50;;;;;;5054908;28;20032;-49
2021/10/02 08:33:55;;;;;;;2.75;1.65;;;14.80;86.90;;;;;;5054520;28;20531;-50
2021/10/02 08:36:20;;;;;;;4.05;1.83;;;15.10;85.90;;;;;;5054567;28;20025;-53
2021/10/02 08:38:46;;;;;;;1.73;1.58;;;15.10;86.10;;;;;;5054511;28;20549;-49
2021/10/02 08:41:16;;;;;;;2.60;1.48;;;15.30;85.10;;;;;;5054122;28;20041;-47
2021/10/02 08:43:47;;;;;;;4.40;1.55;;;15.20;85.20;;;;;;5053874;28;20462;-48
2021/10/02 08:46:14;;;;;;;2.00;1.38;;;15.30;85.80;;;;;;5053492;28;20040;-52
2021/10/02 08:48:42;;;;;;;3.25;1.73;;;15.30;84.40;;;;;;5053999;28;20056;-48
2021/10/02 08:51:09;;;;;;;4.03;1.42;;;15.60;84.60;;;;;;5053632;28;20150;-49
2021/10/02 08:53:35;;;;;;;1.98;1.42;;;15.30;84.60;;;;;;5053860;28;20020;-49
2021/10/02 08:56:02;;;;;;;2.28;1.23;;;15.10;84.60;;;;;;5053655;28;20059;-51
2021/10/02 08:58:29;;;;;;;2.25;2.00;;;15.40;84.40;;;;;;5052261;28;20032;-49
2021/10/02 09:01:00;;;;;;;1.77;1.35;;;15.70;83.60;;;;;;5053719;28;20021;-50
2021/10/02 09:03:26;;;;;;;3.55;1.80;;;15.70;82.30;;;;;;5054149;28;20049;-50
2021/10/02 09:05:51;;;;;;;3.53;1.77;;;15.70;82.30;;;;;;5053616;28;20025;-51
2021/10/02 09:08:17;;;;;;;1.98;1.50;;;15.60;82.50;;;;;;5053772;28;20020;-52
2021/10/02 09:10:43;;;;;;;2.92;1.45;;;15.80;82.00;;;;;;5053891;28;20036;-51
2021/10/02 09:13:09;;;;;;;6.53;2.30;;;15.70;82.90;;;;;;5052376;28;20527;-53
2021/10/02 09:15:35;;;;;;;2.00;1.20;;;15.70;82.00;;;;;;5054130;28;20078;-53
2021/10/02 09:18:01;;;;;;;2.72;1.27;;;15.40;82.80;;;;;;5054207;28;20388;-52
2021/10/02 09:20:26;;;;;;;2.33;1.67;;;15.80;81.60;;;;;;5053668;28;20049;-52
2021/10/02 09:22:59;;;;;;;1.83;1.17;;;16.20;80.50;;;;;;5053853;28;20029;-51
2021/10/02 09:25:27;;;;;;;2.83;1.35;;;16.30;79.40;;;;;;5058710;28;20021;-49
2021/10/02 09:28:07;;;;;;;2.40;1.20;;;16.50;78.20;;;;;;5053689;28;20035;-48
2021/10/02 09:30:45;;;;;;;2.75;1.00;;;16.40;78.70;;;;;;5055589;28;20032;-52
2021/10/02 09:33:13;;;;;;;1.00;0.93;;;16.30;78.30;;;;;;5056285;28;20032;-50
2021/10/02 09:35:42;;;;;;;1.77;1.42;;;16.10;79.30;;;;;;5053553;28;20060;-51
2021/10/02 09:38:17;;;;;;;1.27;1.00;;;16.20;78.60;;;;;;5053347;28;20103;-50
2021/10/02 09:40:55;;;;;;;4.43;1.00;;;15.80;79.40;;;;;;5053391;28;20059;-48
2021/10/02 09:43:21;;;;;;;2.67;1.30;;;15.90;79.10;;;;;;5053337;28;20025;-51
2021/10/02 09:45:48;;;;;;;2.08;1.33;;;16.20;79.30;;;;;;5053042;28;20369;-48
2021/10/02 09:48:28;;;;;;;2.17;1.85;;;16.60;77.30;;;;;;5053279;28;20043;-52
2021/10/02 09:51:01;;;;;;;3.55;1.38;;;16.80;76.30;;;;;;5052553;28;20061;-48
2021/10/02 09:53:26;;;;;;;1.63;1.10;;;17.10;75.70;;;;;;5052641;28;20029;-50
2021/10/02 09:55:53;;;;;;;2.08;1.42;;;16.40;77.80;;;;;;5052758;28;20525;-50
2021/10/02 09:58:27;;;;;;;6.32;2.70;;;16.70;76.80;;;;;;5052638;28;20025;-49
2021/10/02 10:00:53;;;;;;;1.05;1.00;;;16.80;75.50;;;;;;5051283;28;20132;-49
2021/10/02 10:03:20;;;;;;;1.92;1.08;;;16.90;74.90;;;;;;5053001;28;20079;-50
2021/10/02 10:06:19;;;;;;;1.55;1.30;;;16.90;75.10;;;;;;5110451;27;20359;-50
2021/10/02 10:09:00;;;;;;;1.70;1.30;;;17.00;74.90;;;;;;5110697;28;20107;-49
2021/10/02 10:11:43;;;;;;;2.70;1.33;;;16.90;76.20;;;;;;5110242;28;20405;-50
2021/10/02 10:14:15;;;;;;;3.40;1.13;;;17.00;74.50;;;;;;5110183;28;20098;-51
2021/10/02 10:16:42;;;;;;;2.45;1.30;;;16.80;75.20;;;;;;5109761;28;20073;-52
2021/10/02 10:19:23;;;;;;;2.28;1.20;;;16.40;76.10;;;;;;5083569;28;20364;-51
2021/10/02 10:22:10;;;;;;;6.40;1.90;;;16.60;76.20;;;;;;5089690;28;20357;-51
2021/10/02 10:24:38;;;;;;;2.28;1.38;;;17.30;74.40;;;;;;5089799;28;20024;-50
2021/10/02 10:27:05;;;;;;;2.58;2.00;;;17.10;74.90;;;;;;5089935;28;20047;-51
2021/10/02 10:29:42;;;;;;;2.28;1.83;;;17.10;74.20;;;;;;5089667;28;20021;-52
2021/10/02 10:32:09;;;;;;;4.13;2.35;;;16.90;74.80;;;;;;5089450;28;20099;-53
2021/10/02 10:34:40;;;;;;;3.88;2.15;;;17.00;74.60;;;;;;5089299;28;20028;-48
2021/10/02 10:37:10;;;;;;;4.45;1.70;;;16.80;75.80;;;;;;5071557;28;20025;-50
2021/10/02 10:39:37;;;;;;;3.78;2.15;;;16.80;75.50;;;;;;5088935;28;20051;-52
2021/10/02 10:42:04;;;;;;;2.15;1.75;;;16.80;75.70;;;;;;5088756;28;20032;-51
2021/10/02 10:44:30;;;;;;;1.95;1.65;;;17.10;74.70;;;;;;5089149;28;20384;-48
2021/10/02 10:46:57;;;;;;;4.20;1.98;;;17.00;75.20;;;;;;5070769;28;20099;-49
2021/10/02 10:49:23;;;;;;;3.25;2.30;;;16.70;76.50;;;;;;5070250;28;20043;-49
2021/10/02 10:51:50;;;;;;;2.60;2.40;;;16.70;76.90;;;;;;5088620;28;20024;-50
2021/10/02 10:54:17;;;;;;;1.67;1.35;;;16.80;76.50;;;;;;5070066;28;20029;-48
2021/10/02 10:56:46;;;;;;;4.13;1.90;;;16.50;76.00;;;;;;5088954;28;20078;-49
2021/10/02 10:59:17;;;;;;;1.17;1.08;;;16.80;75.10;;;;;;5088317;28;20488;-51
2021/10/02 11:01:43;;;;;;;1.83;1.35;;;16.80;75.30;;;;;;5089093;28;20024;-50
2021/10/02 11:04:31;;;;;;;2.70;1.40;;;16.80;75.20;;;;;;5089326;28;20345;-48
2021/10/02 11:06:59;;;;;;;1.30;1.20;;;16.50;76.10;;;;;;5088744;28;20036;-49
2021/10/02 11:09:43;;;;;;;3.42;2.75;;;16.40;76.80;;;;;;5088810;28;20028;-52
2021/10/02 11:12:16;;;;;;;1.42;1.33;;;16.70;76.30;;;;;;5088463;28;20021;-50
2021/10/02 11:14:47;;;;;;;2.72;1.73;;;16.70;76.20;;;;;;5054009;28;20635;-51
2021/10/02 11:17:15;;;;;;;3.10;1.33;;;16.40;76.60;;;;;;5076507;28;20099;-49
2021/10/02 11:19:42;;;;;;;4.38;1.80;;;16.50;76.40;;;;;;5074877;28;20090;-50
2021/10/02 11:22:53;;;;;;;2.22;1.30;;;16.50;75.80;;;;;;5057555;28;20020;-48
2021/10/02 11:25:19;;;;;;;;;;;16.50;75.80;;;;;;5057161;28;20119;-49
2021/10/02 11:27:46;;;;;;;2.45;1.23;;;16.50;76.30;;;;;;5074891;28;19911;-46
2021/10/02 11:30:14;;;;;;;1.85;1.00;;;16.40;76.40;;;;;;5075051;28;20127;-49
2021/10/02 11:32:40;;;;;;;3.03;1.40;;;16.40;76.90;;;;;;5074523;28;20025;-49
2021/10/02 11:35:30;;;;;;;2.03;1.33;;;16.50;76.40;;;;;;5074793;28;20035;-50
2021/10/02 11:38:00;;;;;;;1.67;1.25;;;16.60;76.20;;;;;;5074544;28;20025;-48
2021/10/02 11:40:32;;;;;;;6.50;1.33;;;16.80;76.10;;;;;;5056632;28;20028;-48
2021/10/02 11:43:13;;;;;;;2.90;1.30;;;16.80;75.90;;;;;;5074700;28;20134;-49
2021/10/02 11:45:52;;;;;;;1.95;1.00;;;16.90;75.00;;;;;;5074474;28;20039;-47
2021/10/02 11:48:32;;;;;;;2.93;1.70;;;16.80;75.70;;;;;;5074567;28;20020;-49
2021/10/02 11:51:19;;;;;;;2.38;1.52;;;17.20;74.50;;;;;;5074386;28;20054;-48
2021/10/02 11:53:49;;;;;;;3.10;1.30;;;17.30;73.80;;;;;;5074412;28;20408;-50
2021/10/02 11:56:19;;;;;;;6.35;3.63;;;17.30;74.30;;;;;;5074005;28;20029;-49
2021/10/02 11:58:46;;;;;;;3.90;2.45;;;17.20;75.20;;;;;;5074606;28;20025;-49
2021/10/02 12:01:20;;;;;;;3.80;2.85;;;17.20;74.50;;;;;;5073725;28;20032;-48
2021/10/02 12:03:47;;;;;;;5.78;1.40;;;17.30;75.40;;;;;;5073790;28;20379;-50
2021/10/02 12:06:19;;;;;;;3.78;1.20;;;17.50;74.70;;;;;;5074283;28;20028;-48
2021/10/02 12:08:48;;;;;;;2.13;1.23;;;17.90;72.90;;;;;;5073642;28;20029;-49
2021/10/02 12:11:13;;;;;;;3.63;1.80;;;18.00;72.80;;;;;;5075347;28;20119;-48
2021/10/02 12:13:51;;;;;;;2.80;1.10;;;17.80;73.10;;;;;;5074151;28;20417;-48
2021/10/02 12:16:22;;;;;;;0.93;0.88;;;18.20;71.60;;;;;;5040001;28;20048;-49
2021/10/02 12:19:10;;;;;;;2.28;1.52;;;18.00;71.20;;;;;;5075392;28;20028;-52
2021/10/02 12:21:49;;;;;;;1.52;0.68;;;18.20;71.10;;;;;;5055861;28;20023;-50
2021/10/02 12:24:29;;;;;;;0.75;0.70;;;17.90;71.70;;;;;;5057131;28;20054;-47
2021/10/02 12:27:01;;;;;;;3.50;1.33;;;17.80;71.60;;;;;;5056556;28;20508;-50
2021/10/02 12:29:37;;;;;;;2.00;0.82;;;18.00;72.10;;;;;;5056096;28;20124;-50
2021/10/02 12:32:20;;;;;;;1.48;1.25;;;18.20;71.30;;;;;;5075066;28;20043;-51
2021/10/02 12:34:51;;;;;;;3.80;1.00;;;18.20;70.70;;;;;;5056082;28;20020;-50
2021/10/02 12:37:24;;;;;;;1.77;1.13;;;17.80;72.30;;;;;;5074022;28;20098;-49
2021/10/02 12:39:54;;;;;;;4.20;1.25;;;18.00;71.50;;;;;;5055499;28;20074;-53
2021/10/02 12:42:33;;;;;;;1.67;1.10;;;18.20;71.90;;;;;;5055763;28;20029;-50
2021/10/02 12:45:00;;;;;;;2.33;0.90;;;17.90;71.90;;;;;;5073235;28;20249;-48
2021/10/02 12:47:28;;;;;;;1.20;0.98;;;18.00;71.40;;;;;;5073209;28;20024;-46
2021/10/02 12:49:57;;;;;;;0.75;0.75;;;18.40;70.20;;;;;;5073223;28;20025;-50
2021/10/02 12:52:24;;;;;;;1.07;1.03;;;18.50;69.40;;;;;;5073167;28;20094;-48
2021/10/02 12:54:54;;;;;;;1.50;0.75;;;18.40;69.40;;;;;;5074142;28;20812;-51
2021/10/02 12:57:37;;;;;;;1.35;1.15;;;18.20;70.40;;;;;;5073358;28;20032;-48
2021/10/02 13:00:07;;;;;;;1.77;0.88;;;18.20;70.20;;;;;;5073420;28;20039;-51
2021/10/02 13:02:39;;;;;;;2.67;1.02;;;18.30;69.70;;;;;;5073272;28;20052;-49
2021/10/02 13:05:05;;;;;;;1.13;0.80;;;18.30;69.10;;;;;;5073362;28;20047;-54
2021/10/02 13:07:37;;;;;;;1.33;0.95;;;18.10;70.70;;;;;;5073043;28;20346;-51
2021/10/02 13:10:08;;;;;;;0.82;0.82;;;17.90;71.10;;;;;;5072964;28;20025;-52
2021/10/02 13:12:41;;;;;;;2.20;0.75;;;18.00;71.00;;;;;;5054878;28;20485;-48
2021/10/02 13:15:29;;;;;;;2.45;1.73;;;18.40;70.10;;;;;;5073227;28;20071;-47
2021/10/02 13:18:14;;;;;;;1.23;1.00;;;18.20;69.50;;;;;;5072467;28;20032;-49
2021/10/02 13:20:42;;;;;;;2.15;0.90;;;18.10;69.80;;;;;;5054594;28;20058;-48
2021/10/02 13:23:15;;;;;;;1.25;0.63;;;18.00;70.20;;;;;;5054520;28;20020;-50
2021/10/02 13:25:43;;;;;;;1.50;0.80;;;18.10;70.00;;;;;;5072586;28;20361;-47
2021/10/02 13:28:21;;;;;;;1.20;1.10;;;18.10;69.30;;;;;;5072761;28;20055;-47
2021/10/02 13:30:47;;;;;;;3.55;0.90;;;18.10;69.60;;;;;;5072451;28;20033;-48
2021/10/02 13:33:14;;;;;;;1.10;1.00;;;18.20;68.60;;;;;;5072559;28;20529;-49
2021/10/02 13:35:50;;;;;;;3.70;1.10;;;18.20;68.60;;;;;;5054857;28;20024;-48
2021/10/02 13:38:16;;;;;;;1.20;1.10;;;18.30;68.30;;;;;;5072651;28;20028;-50
2021/10/02 13:40:53;;;;;;;2.58;0.88;;;18.30;68.70;;;;;;5072356;28;20028;-50
2021/10/02 13:43:21;;;;;;;1.35;0.90;;;18.20;69.30;;;;;;5072275;28;20024;-49
2021/10/02 13:45:52;;;;;;;1.00;0.90;;;18.00;69.80;;;;;;5072452;28;20017;-47
2021/10/02 13:48:25;;;;;;;0.70;0.70;;;18.00;68.70;;;;;;5054952;28;20024;-47
2021/10/02 13:50:51;;;;;;;1.10;0.77;;;18.00;69.10;;;;;;5072925;28;20024;-49
2021/10/02 13:53:17;;;;;;;0.60;0.60;;;17.80;69.70;;;;;;5054362;28;20039;-47
2021/10/02 13:55:43;;;;;;;3.97;1.20;;;17.90;69.80;;;;;;5072460;28;20472;-51